sensor_id;sensor_type;location;lat;lon;timestamp;pressure;altitude;pressure_sealevel;temperature;humidity
49342;BME280;35210;41.606;-87.602;2023-06-26T00:01:56;98164.75;;;26.49;58.26
49342;BME280;35210;41.606;-87.602;2023-06-26T00:04:24;98163.72;;;26.56;58.09
49342;BME280;35210;41.606;-87.602;2023-06-26T00:06:52;98162.09;;;26.55;58.54
49342;BME280;35210;41.606;-87.602;2023-06-26T00:09:21;98158.13;;;26.62;58.50
49342;BME280;35210;41.606;-87.602;2023-06-26T00:11:51;98147.81;;;26.59;58.78
49342;BME280;35210;41.606;-87.602;2023-06-26T00:14:19;98153.22;;;26.59;58.56
49342;BME280;35210;41.606;-87.602;2023-06-26T00:16:48;98152.22;;;26.65;57.97
49342;BME280;35210;41.606;-87.602;2023-06-26T00:19:17;98160.91;;;26.67;57.78
49342;BME280;35210;41.606;-87.602;2023-06-26T00:21:45;98153.34;;;26.69;57.93
49342;BME280;35210;41.606;-87.602;2023-06-26T00:24:14;98146.78;;;26.65;58.06
49342;BME280;35210;41.606;-87.602;2023-06-26T00:26:42;98147.31;;;26.62;58.37
49342;BME280;35210;41.606;-87.602;2023-06-26T00:29:12;98147.31;;;26.62;58.21
49342;BME280;35210;41.606;-87.602;2023-06-26T00:31:40;98131.88;;;26.63;58.42
49342;BME280;35210;41.606;-87.602;2023-06-26T00:34:08;98129.16;;;26.63;58.65
49342;BME280;35210;41.606;-87.602;2023-06-26T00:36:36;98121.56;;;26.60;58.41
49342;BME280;35210;41.606;-87.602;2023-06-26T00:39:04;98129.28;;;26.51;58.44
49342;BME280;35210;41.606;-87.602;2023-06-26T00:41:32;98132.06;;;26.56;59.36
49342;BME280;35210;41.606;-87.602;2023-06-26T00:44:02;98133.25;;;26.43;58.76
49342;BME280;35210;41.606;-87.602;2023-06-26T00:46:32;98136.03;;;26.48;58.57
49342;BME280;35210;41.606;-87.602;2023-06-26T00:49:02;98131.25;;;26.56;58.88
49342;BME280;35210;41.606;-87.602;2023-06-26T00:51:31;98138.56;;;26.55;58.71
49342;BME280;35210;41.606;-87.602;2023-06-26T00:54:00;98116.91;;;26.55;58.88
49342;BME280;35210;41.606;-87.602;2023-06-26T00:56:29;98126.34;;;26.52;58.92
49342;BME280;35210;41.606;-87.602;2023-06-26T00:59:00;98124.69;;;26.51;58.93
49342;BME280;35210;41.606;-87.602;2023-06-26T01:01:33;98144.28;;;26.37;59.60
49342;BME280;35210;41.606;-87.602;2023-06-26T01:04:04;98169.19;;;26.39;59.96
49342;BME280;35210;41.606;-87.602;2023-06-26T01:06:45;98167.63;;;26.43;59.96
49342;BME280;35210;41.606;-87.602;2023-06-26T01:09:18;98166.50;;;26.39;60.10
49342;BME280;35210;41.606;-87.602;2023-06-26T01:11:47;98166.41;;;26.34;60.77
49342;BME280;35210;41.606;-87.602;2023-06-26T01:14:17;98202.31;;;26.29;61.42
49342;BME280;35210;41.606;-87.602;2023-06-26T01:16:50;98222.19;;;26.01;70.08
49342;BME280;35210;41.606;-87.602;2023-06-26T01:19:20;98206.31;;;25.71;76.77
49342;BME280;35210;41.606;-87.602;2023-06-26T01:21:59;98204.75;;;25.30;79.24
49342;BME280;35210;41.606;-87.602;2023-06-26T01:24:34;98199.53;;;24.83;79.58
49342;BME280;35210;41.606;-87.602;2023-06-26T01:27:05;98189.38;;;24.62;81.86
49342;BME280;35210;41.606;-87.602;2023-06-26T01:29:35;98189.91;;;24.47;84.11
49342;BME280;35210;41.606;-87.602;2023-06-26T01:32:05;98185.81;;;24.33;85.11
49342;BME280;35210;41.606;-87.602;2023-06-26T01:34:33;98173.63;;;24.31;86.71
49342;BME280;35210;41.606;-87.602;2023-06-26T01:37:03;98164.47;;;24.32;87.25
49342;BME280;35210;41.606;-87.602;2023-06-26T01:39:31;98173.63;;;24.31;87.73
49342;BME280;35210;41.606;-87.602;2023-06-26T01:41:59;98167.03;;;24.27;87.81
49342;BME280;35210;41.606;-87.602;2023-06-26T01:44:31;98162.81;;;24.31;87.48
49342;BME280;35210;41.606;-87.602;2023-06-26T01:47:02;98164.47;;;24.32;87.96
49342;BME280;35210;41.606;-87.602;2023-06-26T01:49:40;98158.00;;;24.33;88.22
49342;BME280;35210;41.606;-87.602;2023-06-26T01:52:19;98159.66;;;24.34;87.96
49342;BME280;35210;41.606;-87.602;2023-06-26T01:54:54;98161.06;;;24.36;88.23
49342;BME280;35210;41.606;-87.602;2023-06-26T01:57:26;98156.00;;;24.40;87.91
49342;BME280;35210;41.606;-87.602;2023-06-26T01:59:58;98158.69;;;24.40;88.29
49342;BME280;35210;41.606;-87.602;2023-06-26T02:02:28;98161.16;;;24.41;87.96
49342;BME280;35210;41.606;-87.602;2023-06-26T02:04:57;98161.16;;;24.41;87.73
49342;BME280;35210;41.606;-87.602;2023-06-26T02:07:25;98164.81;;;24.35;88.51
49342;BME280;35210;41.606;-87.602;2023-06-26T02:09:53;98159.75;;;24.39;89.35
49342;BME280;35210;41.606;-87.602;2023-06-26T02:12:22;98158.47;;;24.41;89.14
49342;BME280;35210;41.606;-87.602;2023-06-26T02:14:50;98153.88;;;24.42;88.89
49342;BME280;35210;41.606;-87.602;2023-06-26T02:17:20;98159.63;;;24.45;87.79
49342;BME280;35210;41.606;-87.602;2023-06-26T02:19:48;98162.69;;;24.37;87.68
49342;BME280;35210;41.606;-87.602;2023-06-26T02:22:16;98167.63;;;24.40;88.09
49342;BME280;35210;41.606;-87.602;2023-06-26T02:24:44;98164.56;;;24.37;88.19
49342;BME280;35210;41.606;-87.602;2023-06-26T02:27:13;98166.44;;;24.36;88.09
49342;BME280;35210;41.606;-87.602;2023-06-26T02:29:41;98161.66;;;24.27;86.29
49342;BME280;35210;41.606;-87.602;2023-06-26T02:32:12;98164.94;;;24.29;85.89
49342;BME280;35210;41.606;-87.602;2023-06-26T02:34:41;98174.44;;;24.31;85.84
49342;BME280;35210;41.606;-87.602;2023-06-26T02:37:10;98175.84;;;24.34;85.73
49342;BME280;35210;41.606;-87.602;2023-06-26T02:39:39;98185.00;;;24.33;86.01
49342;BME280;35210;41.606;-87.602;2023-06-26T02:42:07;98176.91;;;24.33;85.97
49342;BME280;35210;41.606;-87.602;2023-06-26T02:44:35;98177.94;;;24.32;85.91
49342;BME280;35210;41.606;-87.602;2023-06-26T02:47:04;98176.91;;;24.33;85.68
49342;BME280;35210;41.606;-87.602;2023-06-26T02:49:32;98182.16;;;24.39;85.87
49342;BME280;35210;41.606;-87.602;2023-06-26T02:52:03;98187.91;;;24.43;86.18
49342;BME280;35210;41.606;-87.602;2023-06-26T02:54:31;98189.78;;;24.42;86.23
49342;BME280;35210;41.606;-87.602;2023-06-26T02:56:59;98185.78;;;24.45;86.20
49342;BME280;35210;41.606;-87.602;2023-06-26T02:59:27;98183.91;;;24.45;86.45
49342;BME280;35210;41.606;-87.602;2023-06-26T03:01:55;98177.13;;;24.43;86.61
49342;BME280;35210;41.606;-87.602;2023-06-26T03:04:23;98170.06;;;24.42;86.27
49342;BME280;35210;41.606;-87.602;2023-06-26T03:06:52;98165.75;;;24.29;86.50
49342;BME280;35210;41.606;-87.602;2023-06-26T03:09:21;98173.03;;;24.29;86.62
49342;BME280;35210;41.606;-87.602;2023-06-26T03:11:49;98169.63;;;24.33;86.76
49342;BME280;35210;41.606;-87.602;2023-06-26T03:14:19;98164.94;;;24.29;87.04
49342;BME280;35210;41.606;-87.602;2023-06-26T03:16:47;98165.53;;;24.31;87.18
49342;BME280;35210;41.606;-87.602;2023-06-26T03:19:17;98158.59;;;24.35;86.61
49342;BME280;35210;41.606;-87.602;2023-06-26T03:21:45;98149.69;;;24.34;85.35
49342;BME280;35210;41.606;-87.602;2023-06-26T03:24:13;98154.25;;;24.34;85.31
49342;BME280;35210;41.606;-87.602;2023-06-26T03:26:43;98142.88;;;24.32;84.76
49342;BME280;35210;41.606;-87.602;2023-06-26T03:29:12;98141.25;;;24.31;84.76
49342;BME280;35210;41.606;-87.602;2023-06-26T03:31:40;98139.84;;;24.28;85.05
49342;BME280;35210;41.606;-87.602;2023-06-26T03:34:08;98140.06;;;24.27;84.85
49342;BME280;35210;41.606;-87.602;2023-06-26T03:36:36;98148.03;;;24.21;85.33
49342;BME280;35210;41.606;-87.602;2023-06-26T03:39:05;98140.91;;;24.27;85.46
49342;BME280;35210;41.606;-87.602;2023-06-26T03:41:35;98136.91;;;24.30;85.16
49342;BME280;35210;41.606;-87.602;2023-06-26T03:44:04;98143.81;;;24.26;85.82
49342;BME280;35210;41.606;-87.602;2023-06-26T03:46:33;98142.06;;;24.31;85.77
49342;BME280;35210;41.606;-87.602;2023-06-26T03:49:01;98151.56;;;24.34;85.90
49342;BME280;35210;41.606;-87.602;2023-06-26T03:51:29;98146.16;;;24.34;85.92
49342;BME280;35210;41.606;-87.602;2023-06-26T03:53:57;98137.47;;;24.32;86.04
49342;BME280;35210;41.606;-87.602;2023-06-26T03:56:25;98138.44;;;24.26;86.56
49342;BME280;35210;41.606;-87.602;2023-06-26T03:58:53;98140.06;;;24.27;87.26
49342;BME280;35210;41.606;-87.602;2023-06-26T04:01:24;98142.16;;;24.24;87.06
49342;BME280;35210;41.606;-87.602;2023-06-26T04:03:52;98147.09;;;24.28;86.54
49342;BME280;35210;41.606;-87.602;2023-06-26T04:06:21;98149.66;;;24.22;86.33
49342;BME280;35210;41.606;-87.602;2023-06-26T04:08:50;98143.44;;;24.22;86.56
49342;BME280;35210;41.606;-87.602;2023-06-26T04:11:18;98134.44;;;24.16;86.48
49342;BME280;35210;41.606;-87.602;2023-06-26T04:13:50;98131.84;;;24.10;87.21
49342;BME280;35210;41.606;-87.602;2023-06-26T04:16:18;98128.81;;;24.06;87.26
49342;BME280;35210;41.606;-87.602;2023-06-26T04:18:48;98125.53;;;24.04;87.44
49342;BME280;35210;41.606;-87.602;2023-06-26T04:21:16;98121.88;;;24.10;87.22
49342;BME280;35210;41.606;-87.602;2023-06-26T04:23:46;98124.81;;;24.09;87.28
49342;BME280;35210;41.606;-87.602;2023-06-26T04:26:15;98120.59;;;24.01;87.60
49342;BME280;35210;41.606;-87.602;2023-06-26T04:28:43;98125.19;;;24.01;87.95
49342;BME280;35210;41.606;-87.602;2023-06-26T04:31:15;98122.25;;;23.90;88.32
49342;BME280;35210;41.606;-87.602;2023-06-26T04:33:47;98120.84;;;23.88;88.38
49342;BME280;35210;41.606;-87.602;2023-06-26T04:36:18;98112.53;;;23.89;88.27
49342;BME280;35210;41.606;-87.602;2023-06-26T04:38:46;98115.56;;;23.93;88.44
49342;BME280;35210;41.606;-87.602;2023-06-26T04:41:15;98113.09;;;23.91;88.61
49342;BME280;35210;41.606;-87.602;2023-06-26T04:43:43;98107.47;;;23.93;88.94
49342;BME280;35210;41.606;-87.602;2023-06-26T04:46:11;98113.47;;;23.95;88.87
49342;BME280;35210;41.606;-87.602;2023-06-26T04:48:40;98105.97;;;23.85;89.37
49342;BME280;35210;41.606;-87.602;2023-06-26T04:51:09;98104.44;;;23.89;89.37
49342;BME280;35210;41.606;-87.602;2023-06-26T04:53:38;98100.22;;;23.82;89.71
49342;BME280;35210;41.606;-87.602;2023-06-26T04:56:06;98105.16;;;23.85;90.11
49342;BME280;35210;41.606;-87.602;2023-06-26T04:58:37;98102.22;;;23.86;90.04
49342;BME280;35210;41.606;-87.602;2023-06-26T05:01:05;98091.44;;;23.86;89.88
49342;BME280;35210;41.606;-87.602;2023-06-26T05:03:35;98100.34;;;23.87;90.02
49342;BME280;35210;41.606;-87.602;2023-06-26T05:06:04;98090.38;;;23.87;89.99
49342;BME280;35210;41.606;-87.602;2023-06-26T05:08:33;98084.75;;;23.89;90.05
49342;BME280;35210;41.606;-87.602;2023-06-26T05:11:01;98080.66;;;23.86;90.17
49342;BME280;35210;41.606;-87.602;2023-06-26T05:13:30;98084.53;;;23.79;90.85
49342;BME280;35210;41.606;-87.602;2023-06-26T05:15:58;98083.38;;;23.75;91.52
49342;BME280;35210;41.606;-87.602;2023-06-26T05:18:26;98077.50;;;23.78;91.87
49342;BME280;35210;41.606;-87.602;2023-06-26T05:20:54;98086.16;;;23.80;91.92
49342;BME280;35210;41.606;-87.602;2023-06-26T05:23:25;98082.22;;;23.71;92.37
49342;BME280;35210;41.606;-87.602;2023-06-26T05:25:55;98076.34;;;23.74;92.22
49342;BME280;35210;41.606;-87.602;2023-06-26T05:28:24;98077.63;;;23.71;92.21
49342;BME280;35210;41.606;-87.602;2023-06-26T05:30:54;98076.34;;;23.74;92.80
49342;BME280;35210;41.606;-87.602;2023-06-26T05:33:24;98081.75;;;23.74;92.73
49342;BME280;35210;41.606;-87.602;2023-06-26T05:35:54;98071.28;;;23.77;92.68
49342;BME280;35210;41.606;-87.602;2023-06-26T05:38:23;98076.94;;;23.76;92.31
49342;BME280;35210;41.606;-87.602;2023-06-26T05:40:51;98080.09;;;23.73;92.46
49342;BME280;35210;41.606;-87.602;2023-06-26T05:43:22;98078.47;;;23.72;92.20
49342;BME280;35210;41.606;-87.602;2023-06-26T05:45:50;98073.78;;;23.67;92.69
49342;BME280;35210;41.606;-87.602;2023-06-26T05:48:18;98078.09;;;23.68;92.57
49342;BME280;35210;41.606;-87.602;2023-06-26T05:50:47;98085.13;;;23.69;92.86
49342;BME280;35210;41.606;-87.602;2023-06-26T05:53:15;98082.31;;;23.64;92.92
49342;BME280;35210;41.606;-87.602;2023-06-26T05:55:44;98085.38;;;23.68;93.25
49342;BME280;35210;41.606;-87.602;2023-06-26T05:58:12;98081.63;;;23.69;93.04
49342;BME280;35210;41.606;-87.602;2023-06-26T06:00:44;98075.53;;;23.62;93.64
49342;BME280;35210;41.606;-87.602;2023-06-26T06:03:13;98072.47;;;23.58;93.82
49342;BME280;35210;41.606;-87.602;2023-06-26T06:05:41;98071.06;;;23.55;94.24
49342;BME280;35210;41.606;-87.602;2023-06-26T06:08:09;98074.81;;;23.54;94.35
49342;BME280;35210;41.606;-87.602;2023-06-26T06:10:37;98075.59;;;23.43;94.63
49342;BME280;35210;41.606;-87.602;2023-06-26T06:13:06;98066.81;;;23.48;94.85
49342;BME280;35210;41.606;-87.602;2023-06-26T06:15:34;98057.47;;;23.50;94.84
49342;BME280;35210;41.606;-87.602;2023-06-26T06:18:03;98057.94;;;23.47;94.73
49342;BME280;35210;41.606;-87.602;2023-06-26T06:20:31;98059.09;;;23.51;94.61
49342;BME280;35210;41.606;-87.602;2023-06-26T06:23:00;98054.31;;;23.53;94.61
49342;BME280;35210;41.606;-87.602;2023-06-26T06:25:28;98058.66;;;23.54;94.72
49342;BME280;35210;41.606;-87.602;2023-06-26T06:27:56;98057.03;;;23.53;94.14
49342;BME280;35210;41.606;-87.602;2023-06-26T06:30:24;98051.94;;;23.45;94.69
49342;BME280;35210;41.606;-87.602;2023-06-26T06:32:53;98057.81;;;23.42;94.66
49342;BME280;35210;41.606;-87.602;2023-06-26T06:35:23;98062.72;;;23.45;94.82
49342;BME280;35210;41.606;-87.602;2023-06-26T06:37:51;98074.91;;;23.48;94.65
49342;BME280;35210;41.606;-87.602;2023-06-26T06:40:20;98055.09;;;23.42;94.92
49342;BME280;35210;41.606;-87.602;2023-06-26T06:42:49;98062.00;;;23.38;95.18
49342;BME280;35210;41.606;-87.602;2023-06-26T06:45:17;98055.34;;;23.41;95.05
49342;BME280;35210;41.606;-87.602;2023-06-26T06:47:47;98074.44;;;23.39;94.92
49342;BME280;35210;41.606;-87.602;2023-06-26T06:50:15;98068.09;;;23.34;95.54
49342;BME280;35210;41.606;-87.602;2023-06-26T06:52:45;98070.69;;;23.40;95.09
49342;BME280;35210;41.606;-87.602;2023-06-26T06:55:13;98062.00;;;23.38;94.97
49342;BME280;35210;41.606;-87.602;2023-06-26T06:57:42;98065.28;;;23.40;95.07
49342;BME280;35210;41.606;-87.602;2023-06-26T07:00:12;98065.28;;;23.40;94.89
49342;BME280;35210;41.606;-87.602;2023-06-26T07:02:43;98062.47;;;23.35;95.19
49342;BME280;35210;41.606;-87.602;2023-06-26T07:05:12;98048.31;;;23.28;95.32
49342;BME280;35210;41.606;-87.602;2023-06-26T07:07:40;98048.91;;;23.30;95.17
49342;BME280;35210;41.606;-87.602;2023-06-26T07:10:11;98052.06;;;23.27;95.36
49342;BME280;35210;41.606;-87.602;2023-06-26T07:12:40;98051.00;;;23.28;95.66
49342;BME280;35210;41.606;-87.602;2023-06-26T07:15:08;98056.38;;;23.28;95.33
49342;BME280;35210;41.606;-87.602;2023-06-26T07:17:36;98052.19;;;23.32;95.11
49342;BME280;35210;41.606;-87.602;2023-06-26T07:20:06;98057.56;;;23.32;95.19
49342;BME280;35210;41.606;-87.602;2023-06-26T07:22:36;98068.34;;;23.32;95.50
49342;BME280;35210;41.606;-87.602;2023-06-26T07:25:05;98069.75;;;23.35;95.28
49342;BME280;35210;41.606;-87.602;2023-06-26T07:27:36;98066.22;;;23.34;95.21
49342;BME280;35210;41.606;-87.602;2023-06-26T07:30:05;98064.94;;;23.37;94.90
49342;BME280;35210;41.606;-87.602;2023-06-26T07:32:35;98072.06;;;23.31;95.22
49342;BME280;35210;41.606;-87.602;2023-06-26T07:35:03;98080.63;;;23.28;95.30
49342;BME280;35210;41.606;-87.602;2023-06-26T07:37:32;98080.75;;;23.33;95.09
49342;BME280;35210;41.606;-87.602;2023-06-26T07:40:00;98072.06;;;23.31;95.07
49342;BME280;35210;41.606;-87.602;2023-06-26T07:42:28;98072.06;;;23.31;94.99
49342;BME280;35210;41.606;-87.602;2023-06-26T07:44:58;98080.28;;;23.24;95.41
49342;BME280;35210;41.606;-87.602;2023-06-26T07:47:26;98070.78;;;23.22;95.54
49342;BME280;35210;41.606;-87.602;2023-06-26T07:49:55;98072.53;;;23.16;95.78
49342;BME280;35210;41.606;-87.602;2023-06-26T07:52:23;98078.16;;;23.15;95.97
49342;BME280;35210;41.606;-87.602;2023-06-26T07:54:51;98081.66;;;23.15;95.67
49342;BME280;35210;41.606;-87.602;2023-06-26T07:57:19;98084.25;;;23.22;95.46
49342;BME280;35210;41.606;-87.602;2023-06-26T07:59:49;98082.13;;;23.24;95.29
49342;BME280;35210;41.606;-87.602;2023-06-26T08:02:19;98091.28;;;23.23;95.39
49342;BME280;35210;41.606;-87.602;2023-06-26T08:04:48;98082.59;;;23.21;95.41
49342;BME280;35210;41.606;-87.602;2023-06-26T08:07:16;98090.91;;;23.19;95.70
49342;BME280;35210;41.606;-87.602;2023-06-26T08:09:44;98095.38;;;23.25;95.01
49342;BME280;35210;41.606;-87.602;2023-06-26T08:12:13;98090.34;;;23.29;95.08
49342;BME280;35210;41.606;-87.602;2023-06-26T08:14:41;98098.28;;;23.24;95.55
49342;BME280;35210;41.606;-87.602;2023-06-26T08:17:09;98091.63;;;23.26;95.38
49342;BME280;35210;41.606;-87.602;2023-06-26T08:19:38;98089.75;;;23.27;94.92
49342;BME280;35210;41.606;-87.602;2023-06-26T08:22:06;98080.97;;;23.20;95.38
49342;BME280;35210;41.606;-87.602;2023-06-26T08:24:35;98083.78;;;23.25;95.35
49342;BME280;35210;41.606;-87.602;2023-06-26T08:27:03;98085.41;;;23.26;95.32
49342;BME280;35210;41.606;-87.602;2023-06-26T08:29:33;98087.53;;;23.24;95.30
49342;BME280;35210;41.606;-87.602;2023-06-26T08:32:01;98085.41;;;23.26;95.18
49342;BME280;35210;41.606;-87.602;2023-06-26T08:34:29;98083.56;;;23.26;95.38
49342;BME280;35210;41.606;-87.602;2023-06-26T08:36:59;98087.06;;;23.27;95.37
49342;BME280;35210;41.606;-87.602;2023-06-26T08:39:27;98083.31;;;23.28;95.03
49342;BME280;35210;41.606;-87.602;2023-06-26T08:41:55;98080.97;;;23.32;95.02
49342;BME280;35210;41.606;-87.602;2023-06-26T08:44:24;98089.06;;;23.32;94.77
49342;BME280;35210;41.606;-87.602;2023-06-26T08:46:52;98089.53;;;23.28;94.98
49342;BME280;35210;41.606;-87.602;2023-06-26T08:49:26;98085.78;;;23.30;95.54
49342;BME280;35210;41.606;-87.602;2023-06-26T08:52:02;98092.44;;;23.27;95.38
49342;BME280;35210;41.606;-87.602;2023-06-26T08:54:36;98088.72;;;23.28;95.00
49342;BME280;35210;41.606;-87.602;2023-06-26T08:57:08;98083.78;;;23.25;95.40
49342;BME280;35210;41.606;-87.602;2023-06-26T08:59:36;98080.03;;;23.26;95.46
49342;BME280;35210;41.606;-87.602;2023-06-26T09:02:04;98086.47;;;23.25;95.40
49342;BME280;35210;41.606;-87.602;2023-06-26T09:04:33;98078.53;;;23.30;94.97
49342;BME280;35210;41.606;-87.602;2023-06-26T09:07:04;98087.06;;;23.27;95.33
49342;BME280;35210;41.606;-87.602;2023-06-26T09:09:32;98084.00;;;23.23;95.31
49342;BME280;35210;41.606;-87.602;2023-06-26T09:12:01;98082.13;;;23.24;95.50
49342;BME280;35210;41.606;-87.602;2023-06-26T09:14:30;98093.72;;;23.24;95.44
49342;BME280;35210;41.606;-87.602;2023-06-26T09:16:58;98098.28;;;23.24;95.06
49342;BME280;35210;41.606;-87.602;2023-06-26T09:19:26;98096.19;;;23.26;95.50
49342;BME280;35210;41.606;-87.602;2023-06-26T09:21:55;98087.06;;;23.27;94.90
49342;BME280;35210;41.606;-87.602;2023-06-26T09:24:25;98084.97;;;23.29;95.14
49342;BME280;35210;41.606;-87.602;2023-06-26T09:26:54;98086.25;;;23.26;95.19
49342;BME280;35210;41.606;-87.602;2023-06-26T09:29:22;98084.84;;;23.24;95.24
49342;BME280;35210;41.606;-87.602;2023-06-26T09:31:51;98083.78;;;23.25;95.01
49342;BME280;35210;41.606;-87.602;2023-06-26T09:34:20;98089.16;;;23.25;95.10
49342;BME280;35210;41.606;-87.602;2023-06-26T09:36:48;98093.72;;;23.24;95.02
49342;BME280;35210;41.606;-87.602;2023-06-26T09:39:20;98091.84;;;23.25;95.07
49342;BME280;35210;41.606;-87.602;2023-06-26T09:41:50;98094.56;;;23.25;95.36
49342;BME280;35210;41.606;-87.602;2023-06-26T09:44:19;98087.06;;;23.27;95.09
49342;BME280;35210;41.606;-87.602;2023-06-26T09:46:47;98090.56;;;23.27;94.93
49342;BME280;35210;41.606;-87.602;2023-06-26T09:49:15;98100.53;;;23.27;94.78
49342;BME280;35210;41.606;-87.602;2023-06-26T09:51:44;98087.66;;;23.29;94.47
49342;BME280;35210;41.606;-87.602;2023-06-26T09:54:12;98092.00;;;23.30;94.22
49342;BME280;35210;41.606;-87.602;2023-06-26T09:56:40;98094.09;;;23.28;94.35
49342;BME280;35210;41.606;-87.602;2023-06-26T09:59:09;98087.06;;;23.27;94.55
49342;BME280;35210;41.606;-87.602;2023-06-26T10:01:41;98095.72;;;23.29;94.41
49342;BME280;35210;41.606;-87.602;2023-06-26T10:04:09;98094.09;;;23.28;94.34
49342;BME280;35210;41.606;-87.602;2023-06-26T10:06:41;98100.41;;;23.22;94.54
49342;BME280;35210;41.606;-87.602;2023-06-26T10:09:14;98092.69;;;23.25;94.38
49342;BME280;35210;41.606;-87.602;2023-06-26T10:11:49;98097.38;;;23.30;94.10
49342;BME280;35210;41.606;-87.602;2023-06-26T10:14:21;98107.78;;;23.26;94.27
49342;BME280;35210;41.606;-87.602;2023-06-26T10:16:50;98110.25;;;23.28;94.16
49342;BME280;35210;41.606;-87.602;2023-06-26T10:19:19;98110.84;;;23.30;93.99
49342;BME280;35210;41.606;-87.602;2023-06-26T10:21:52;98110.84;;;23.30;93.66
49342;BME280;35210;41.606;-87.602;2023-06-26T10:24:22;98109.31;;;23.34;93.26
49342;BME280;35210;41.606;-87.602;2023-06-26T10:26:57;98108.97;;;23.31;93.43
49342;BME280;35210;41.606;-87.602;2023-06-26T10:29:29;98114.59;;;23.29;93.46
49342;BME280;35210;41.606;-87.602;2023-06-26T10:32:00;98118.34;;;23.28;93.64
49342;BME280;35210;41.606;-87.602;2023-06-26T10:34:30;98122.31;;;23.25;93.82
49342;BME280;35210;41.606;-87.602;2023-06-26T10:37:02;98120.31;;;23.21;94.06
49342;BME280;35210;41.606;-87.602;2023-06-26T10:39:49;98128.16;;;23.22;94.04
49342;BME280;35210;41.606;-87.602;2023-06-26T10:42:18;98119.03;;;23.23;93.70
49342;BME280;35210;41.606;-87.602;2023-06-26T10:44:49;98120.31;;;23.21;93.67
49342;BME280;35210;41.606;-87.602;2023-06-26T10:47:29;98120.75;;;23.18;93.93
49342;BME280;35210;41.606;-87.602;2023-06-26T10:50:16;98121.59;;;23.18;93.71
49342;BME280;35210;41.606;-87.602;2023-06-26T10:52:45;98131.06;;;23.21;93.46
49342;BME280;35210;41.606;-87.602;2023-06-26T10:55:14;98123.22;;;23.19;93.30
49342;BME280;35210;41.606;-87.602;2023-06-26T10:57:46;98136.00;;;23.24;92.82
49342;BME280;35210;41.606;-87.602;2023-06-26T11:00:18;98142.44;;;23.23;93.07
49342;BME280;35210;41.606;-87.602;2023-06-26T11:02:50;98141.84;;;23.21;93.16
49342;BME280;35210;41.606;-87.602;2023-06-26T11:05:25;98137.97;;;23.17;93.48
49342;BME280;35210;41.606;-87.602;2023-06-26T11:08:06;98133.78;;;23.21;93.91
49342;BME280;35210;41.606;-87.602;2023-06-26T11:10:49;98130.25;;;23.20;93.70
49342;BME280;35210;41.606;-87.602;2023-06-26T11:13:18;98139.47;;;23.13;93.88
49342;BME280;35210;41.606;-87.602;2023-06-26T11:15:50;98139.03;;;23.16;93.80
49342;BME280;35210;41.606;-87.602;2023-06-26T11:18:19;98138.94;;;23.22;93.35
49342;BME280;35210;41.606;-87.602;2023-06-26T11:20:47;98140.94;;;23.27;92.75
49342;BME280;35210;41.606;-87.602;2023-06-26T11:23:22;98134.94;;;23.25;92.75
49342;BME280;35210;41.606;-87.602;2023-06-26T11:25:52;98131.91;;;23.21;92.79
49342;BME280;35210;41.606;-87.602;2023-06-26T11:28:23;98152.16;;;23.24;92.84
49342;BME280;35210;41.606;-87.602;2023-06-26T11:30:53;98153.34;;;23.28;92.42
49342;BME280;35210;41.606;-87.602;2023-06-26T11:33:27;98151.69;;;23.27;92.65
49342;BME280;35210;41.606;-87.602;2023-06-26T11:35:55;98159.19;;;23.25;93.15
49342;BME280;35210;41.606;-87.602;2023-06-26T11:38:23;98146.78;;;23.24;92.80
49342;BME280;35210;41.606;-87.602;2023-06-26T11:40:51;98153.44;;;23.21;92.97
49342;BME280;35210;41.606;-87.602;2023-06-26T11:43:20;98153.22;;;23.23;93.05
49342;BME280;35210;41.606;-87.602;2023-06-26T11:45:50;98158.81;;;23.21;93.03
49342;BME280;35210;41.606;-87.602;2023-06-26T11:48:19;98168.78;;;23.21;92.72
49342;BME280;35210;41.606;-87.602;2023-06-26T11:50:51;98163.25;;;23.16;92.81
49342;BME280;35210;41.606;-87.602;2023-06-26T11:53:20;98164.66;;;23.18;92.89
49342;BME280;35210;41.606;-87.602;2023-06-26T11:55:48;98161.53;;;23.21;93.19
49342;BME280;35210;41.606;-87.602;2023-06-26T11:58:16;98166.69;;;23.23;92.96
49342;BME280;35210;41.606;-87.602;2023-06-26T12:00:47;98169.69;;;23.15;93.07
49342;BME280;35210;41.606;-87.602;2023-06-26T12:03:15;98172.53;;;23.20;93.63
49342;BME280;35210;41.606;-87.602;2023-06-26T12:05:45;98178.72;;;23.20;93.44
49342;BME280;35210;41.606;-87.602;2023-06-26T12:08:13;98182.84;;;23.23;93.25
49342;BME280;35210;41.606;-87.602;2023-06-26T12:10:42;98188.81;;;23.25;93.10
49342;BME280;35210;41.606;-87.602;2023-06-26T12:13:10;98185.06;;;23.26;92.87
49342;BME280;35210;41.606;-87.602;2023-06-26T12:15:38;98184.59;;;23.29;92.84
49342;BME280;35210;41.606;-87.602;2023-06-26T12:18:08;98184.03;;;23.27;93.14
49342;BME280;35210;41.606;-87.602;2023-06-26T12:20:40;98171.38;;;23.27;92.64
49342;BME280;35210;41.606;-87.602;2023-06-26T12:23:13;98180.72;;;23.25;92.53
49342;BME280;35210;41.606;-87.602;2023-06-26T12:25:42;98186.94;;;23.25;92.23
49342;BME280;35210;41.606;-87.602;2023-06-26T12:28:17;98189.88;;;23.24;92.56
49342;BME280;35210;41.606;-87.602;2023-06-26T12:31:13;98194.88;;;23.20;92.59
49342;BME280;35210;41.606;-87.602;2023-06-26T12:33:43;98199.34;;;23.26;92.82
49342;BME280;35210;41.606;-87.602;2023-06-26T12:36:12;98210.13;;;23.26;92.34
49342;BME280;35210;41.606;-87.602;2023-06-26T12:38:42;98209.31;;;23.26;92.78
49342;BME280;35210;41.606;-87.602;2023-06-26T12:41:13;98200.41;;;23.25;93.01
49342;BME280;35210;41.606;-87.602;2023-06-26T12:43:42;98195.97;;;23.31;92.89
49342;BME280;35210;41.606;-87.602;2023-06-26T12:46:10;98193.41;;;23.36;93.35
49342;BME280;35210;41.606;-87.602;2023-06-26T12:48:39;98179.63;;;23.44;93.24
49342;BME280;35210;41.606;-87.602;2023-06-26T12:51:10;98181.38;;;23.50;92.30
49342;BME280;35210;41.606;-87.602;2023-06-26T12:53:39;98185.50;;;23.53;91.17